Time;durP1;ratioP1;P1;durP2;ratioP2;P2;SDS_P1;SDS_P2;PMS_P1;PMS_P2;Temp;Humidity;BMP_temperature;BMP_pressure;BME280_temperature;BME280_humidity;BME280_pressure;Samples;Min_cycle;Max_cycle;Signal;HPM_P1;HPM_P2
2022/08/29 00:01:10;;;;;;;4.78;3.60;;;20.40;99.90;;;;;;5075222;28;20098;-65
2022/08/29 00:03:36;;;;;;;4.68;3.67;;;20.30;99.90;;;;;;5075090;28;20032;-65
2022/08/29 00:06:02;;;;;;;5.82;3.10;;;20.20;99.90;;;;;;5075025;28;20056;-64
2022/08/29 00:08:28;;;;;;;5.15;3.38;;;20.30;99.90;;;;;;5074844;28;20186;-64
2022/08/29 00:10:54;;;;;;;5.03;3.45;;;20.20;99.90;;;;;;5074583;28;20496;-64
2022/08/29 00:13:21;;;;;;;4.50;3.58;;;20.20;99.90;;;;;;5074579;28;20039;-64
2022/08/29 00:15:47;;;;;;;4.18;3.10;;;20.30;99.90;;;;;;5073350;28;20040;-65
2022/08/29 00:18:14;;;;;;;5.10;3.67;;;20.20;99.90;;;;;;5073095;28;20032;-65
2022/08/29 00:20:41;;;;;;;5.25;3.78;;;20.00;99.90;;;;;;5073770;28;20052;-65
2022/08/29 00:23:07;;;;;;;5.93;3.92;;;19.90;99.90;;;;;;5074231;28;20042;-64
2022/08/29 00:25:33;;;;;;;6.10;3.60;;;20.00;99.90;;;;;;5074057;28;20048;-65
2022/08/29 00:27:59;;;;;;;5.60;3.65;;;20.20;99.90;;;;;;5073916;28;20068;-66
2022/08/29 00:30:26;;;;;;;5.15;3.75;;;20.20;99.90;;;;;;5070481;28;20036;-64
2022/08/29 00:32:52;;;;;;;5.65;3.83;;;20.00;99.90;;;;;;5051957;28;20043;-65
2022/08/29 00:35:25;;;;;;;4.75;3.92;;;19.90;99.90;;;;;;5054467;28;20131;-65
2022/08/29 00:37:53;;;;;;;5.57;3.45;;;19.80;99.90;;;;;;5054272;28;20119;-64
2022/08/29 00:40:24;;;;;;;5.47;4.10;;;19.80;99.90;;;;;;5054138;28;20092;-65
2022/08/29 00:42:50;;;;;;;5.22;3.60;;;19.80;99.90;;;;;;5054350;28;20051;-65
2022/08/29 00:45:17;;;;;;;6.35;4.07;;;19.80;99.90;;;;;;5054337;28;20120;-65
2022/08/29 00:47:51;;;;;;;5.63;3.97;;;19.60;99.90;;;;;;5054321;28;20497;-64
2022/08/29 00:50:41;;;;;;;5.07;3.35;;;19.70;99.90;;;;;;5054334;28;20033;-66
2022/08/29 00:53:10;;;;;;;7.97;3.80;;;19.70;99.90;;;;;;5054228;28;20103;-65
2022/08/29 00:55:37;;;;;;;5.55;4.00;;;19.70;99.90;;;;;;5054281;28;20043;-64
2022/08/29 00:58:09;;;;;;;6.03;3.85;;;19.80;99.90;;;;;;5054172;28;20040;-65
2022/08/29 01:00:37;;;;;;;5.63;3.78;;;19.70;99.90;;;;;;5053814;28;20052;-66
2022/08/29 01:03:04;;;;;;;5.35;3.80;;;19.60;99.90;;;;;;5053801;28;20119;-64
2022/08/29 01:05:31;;;;;;;4.97;3.30;;;19.70;99.90;;;;;;5053917;28;20049;-65
2022/08/29 01:07:57;;;;;;;5.43;3.90;;;19.70;99.90;;;;;;5053956;28;20063;-64
2022/08/29 01:13:10;;;;;;;4.60;3.40;;;19.60;99.90;;;;;;5053980;28;20543;-64
2022/08/29 01:15:39;;;;;;;8.82;4.00;;;19.20;99.90;;;;;;5053886;28;20063;-65
2022/08/29 01:18:06;;;;;;;5.60;3.75;;;19.20;99.90;;;;;;5053931;28;20033;-64
2022/08/29 01:21:00;;;;;;;3.45;3.15;;;19.30;99.90;;;;;;5053874;28;20202;-65
2022/08/29 01:23:47;;;;;;;7.15;3.58;;;19.30;99.90;;;;;;5053914;28;20500;-64
2022/08/29 01:26:13;;;;;;;6.65;4.10;;;19.30;99.90;;;;;;5053599;28;20512;-65
2022/08/29 01:28:43;;;;;;;5.85;3.40;;;19.20;99.90;;;;;;5053673;28;20493;-64
2022/08/29 01:31:16;;;;;;;5.40;3.15;;;19.20;99.90;;;;;;5053909;28;20040;-64
2022/08/29 01:33:49;;;;;;;7.85;3.47;;;19.20;99.90;;;;;;5054008;28;20048;-64
2022/08/29 01:36:18;;;;;;;6.28;3.53;;;19.20;99.90;;;;;;5053693;28;20044;-64
2022/08/29 01:38:45;;;;;;;6.57;3.72;;;19.30;99.90;;;;;;5055360;28;20186;-64
2022/08/29 01:41:11;;;;;;;5.25;3.60;;;19.30;99.90;;;;;;5057636;28;20053;-65
2022/08/29 01:43:46;;;;;;;5.38;3.60;;;19.20;99.90;;;;;;5057591;28;20949;-64
2022/08/29 01:46:14;;;;;;;5.53;3.63;;;19.20;99.90;;;;;;5057446;28;20519;-65
2022/08/29 01:48:43;;;;;;;4.00;3.25;;;19.30;99.90;;;;;;5057581;28;20400;-64
2022/08/29 01:51:09;;;;;;;7.07;3.92;;;19.30;99.90;;;;;;5057280;28;20588;-64
2022/08/29 01:53:36;;;;;;;6.75;3.53;;;19.20;99.90;;;;;;5057495;28;20091;-66
2022/08/29 01:56:15;;;;;;;5.30;3.50;;;19.30;99.90;;;;;;5057407;28;20048;-65
2022/08/29 01:58:42;;;;;;;5.05;3.40;;;19.30;99.90;;;;;;5057454;28;20041;-64
2022/08/29 02:01:10;;;;;;;3.85;3.10;;;19.30;99.90;;;;;;5057423;28;20055;-65
2022/08/29 02:03:36;;;;;;;4.85;3.65;;;19.30;99.90;;;;;;5057334;28;20039;-64
2022/08/29 02:06:04;;;;;;;7.03;3.53;;;19.30;99.90;;;;;;5057330;28;20044;-64
2022/08/29 02:08:30;;;;;;;6.28;3.80;;;19.40;99.90;;;;;;5057379;28;20079;-65
2022/08/29 02:10:57;;;;;;;5.15;3.40;;;19.60;99.90;;;;;;5057287;28;20166;-64
2022/08/29 02:13:23;;;;;;;5.65;3.60;;;19.70;99.90;;;;;;5057337;28;20044;-64
2022/08/29 02:15:50;;;;;;;4.53;3.50;;;19.50;99.90;;;;;;5057140;28;20044;-64
2022/08/29 02:18:17;;;;;;;6.15;3.55;;;19.40;99.90;;;;;;5056928;28;20542;-64
2022/08/29 02:20:43;;;;;;;4.65;3.35;;;19.40;99.90;;;;;;5056893;28;20095;-64
2022/08/29 02:23:10;;;;;;;6.53;3.85;;;19.20;99.90;;;;;;5056920;28;20037;-65
2022/08/29 02:25:42;;;;;;;5.78;3.67;;;19.20;99.90;;;;;;5056938;28;20094;-65
2022/08/29 02:28:13;;;;;;;6.38;3.42;;;19.10;99.90;;;;;;5056940;28;20366;-64
2022/08/29 02:30:42;;;;;;;6.80;3.50;;;18.80;99.90;;;;;;5056679;28;20052;-66
2022/08/29 02:33:08;;;;;;;4.93;3.58;;;18.70;99.90;;;;;;5062772;28;20047;-65
2022/08/29 02:35:35;;;;;;;5.05;3.20;;;18.70;99.90;;;;;;5076873;28;20044;-65
2022/08/29 02:38:01;;;;;;;5.97;3.80;;;18.80;99.90;;;;;;5076841;28;20039;-65
2022/08/29 02:40:27;;;;;;;5.00;3.42;;;18.90;99.90;;;;;;5076328;28;20060;-66
2022/08/29 02:42:54;;;;;;;5.72;3.40;;;18.90;99.90;;;;;;5076214;28;20056;-64
2022/08/29 02:45:21;;;;;;;5.40;3.47;;;19.00;99.90;;;;;;5076319;28;20040;-64
2022/08/29 02:47:47;;;;;;;5.25;3.85;;;18.70;99.90;;;;;;5076222;28;20085;-65
2022/08/29 02:50:14;;;;;;;6.82;4.25;;;18.50;99.90;;;;;;5076427;28;20036;-66
2022/08/29 02:52:41;;;;;;;3.40;2.97;;;18.50;99.90;;;;;;5076440;28;20105;-64
2022/08/29 02:55:10;;;;;;;9.68;4.07;;;18.40;99.90;;;;;;5076169;28;20033;-64
2022/08/29 02:57:37;;;;;;;5.65;3.60;;;18.50;99.90;;;;;;5075997;28;20576;-66
2022/08/29 03:00:07;;;;;;;5.03;3.78;;;18.60;99.90;;;;;;5076361;28;20037;-64
2022/08/29 03:02:33;;;;;;;4.05;3.10;;;18.60;99.90;;;;;;5076240;28;20043;-65
2022/08/29 03:04:59;;;;;;;6.90;3.50;;;18.80;99.90;;;;;;5076366;28;20032;-64
2022/08/29 03:07:25;;;;;;;5.38;3.88;;;18.80;99.90;;;;;;5076305;28;20033;-64
2022/08/29 03:09:51;;;;;;;5.45;3.90;;;18.80;99.90;;;;;;5076278;28;20094;-64
2022/08/29 03:12:17;;;;;;;5.55;3.95;;;19.00;99.90;;;;;;5075964;28;20032;-65
2022/08/29 03:14:43;;;;;;;6.32;3.88;;;19.00;99.90;;;;;;5075936;28;20573;-64
2022/08/29 03:17:09;;;;;;;4.38;3.50;;;18.90;99.90;;;;;;5075842;28;20076;-64
2022/08/29 03:19:38;;;;;;;5.15;3.67;;;18.80;99.90;;;;;;5075628;28;20515;-64
2022/08/29 03:22:04;;;;;;;9.57;3.83;;;18.60;99.90;;;;;;5075558;28;20075;-66
2022/08/29 03:24:30;;;;;;;6.82;3.67;;;18.60;99.90;;;;;;5075742;28;20047;-65
2022/08/29 03:26:56;;;;;;;5.25;3.65;;;18.60;99.90;;;;;;5075703;28;20048;-66
2022/08/29 03:29:22;;;;;;;5.72;3.90;;;18.60;99.90;;;;;;5075746;28;20040;-65
2022/08/29 03:31:47;;;;;;;9.73;3.60;;;18.60;99.90;;;;;;5075663;28;20133;-65
2022/08/29 03:34:14;;;;;;;4.97;3.58;;;18.70;99.90;;;;;;5075612;28;20082;-64
2022/08/29 03:36:40;;;;;;;6.47;4.10;;;18.70;99.90;;;;;;5075592;28;20044;-64
2022/08/29 03:39:06;;;;;;;5.60;3.75;;;18.90;99.90;;;;;;5075641;28;20048;-65
2022/08/29 03:41:33;;;;;;;5.28;4.13;;;18.90;99.90;;;;;;5075287;28;20048;-66
2022/08/29 03:43:59;;;;;;;8.50;4.00;;;19.00;99.90;;;;;;5075507;28;20032;-65
2022/08/29 03:46:25;;;;;;;7.90;3.38;;;18.90;99.90;;;;;;5075506;28;20395;-64
2022/08/29 03:48:51;;;;;;;4.43;3.50;;;18.90;99.90;;;;;;5075317;28;20028;-65
2022/08/29 03:51:17;;;;;;;7.75;4.15;;;18.80;99.90;;;;;;5075293;28;20051;-65
2022/08/29 03:53:43;;;;;;;5.63;4.00;;;18.80;99.90;;;;;;5075365;28;20028;-65
2022/08/29 03:56:09;;;;;;;5.65;3.63;;;18.90;99.90;;;;;;5075159;28;20052;-65
2022/08/29 03:58:36;;;;;;;7.80;4.30;;;19.00;99.90;;;;;;5075263;28;20043;-66
2022/08/29 04:01:03;;;;;;;6.53;4.28;;;19.10;99.90;;;;;;5074569;28;20407;-65
2022/08/29 04:03:29;;;;;;;4.95;3.50;;;19.10;99.90;;;;;;5075259;28;20097;-64
2022/08/29 04:05:54;;;;;;;4.15;3.28;;;19.10;99.90;;;;;;5074926;28;20377;-64
2022/08/29 04:08:20;;;;;;;5.97;3.92;;;19.10;99.90;;;;;;5074897;28;20036;-65
2022/08/29 04:10:46;;;;;;;6.03;3.47;;;19.00;99.90;;;;;;5074840;28;20048;-64
2022/08/29 04:13:12;;;;;;;4.70;3.70;;;18.90;99.90;;;;;;5073556;28;20033;-65
2022/08/29 04:15:42;;;;;;;6.97;3.75;;;18.90;99.90;;;;;;5074972;28;20075;-65
2022/08/29 04:18:09;;;;;;;6.72;4.50;;;18.80;99.90;;;;;;5074810;28;20041;-66
2022/08/29 04:20:43;;;;;;;7.13;3.80;;;18.50;99.90;;;;;;5074807;28;20044;-65
2022/08/29 04:23:11;;;;;;;4.95;3.97;;;18.70;99.90;;;;;;5074722;28;20115;-64
2022/08/29 04:25:38;;;;;;;5.55;3.97;;;18.90;99.90;;;;;;5074493;28;20040;-65
2022/08/29 04:28:10;;;;;;;9.18;3.40;;;18.80;99.90;;;;;;5074403;28;20519;-64
2022/08/29 04:30:37;;;;;;;5.60;3.63;;;18.80;99.90;;;;;;5074548;28;20028;-65
2022/08/29 04:33:04;;;;;;;5.65;4.00;;;18.80;99.90;;;;;;5072448;28;20052;-64
2022/08/29 04:35:30;;;;;;;5.30;3.30;;;18.90;99.90;;;;;;5065016;28;20048;-65
2022/08/29 04:37:55;;;;;;;5.15;3.55;;;19.00;99.90;;;;;;5052263;28;20032;-64
2022/08/29 04:40:22;;;;;;;4.85;3.60;;;18.90;99.90;;;;;;5053217;28;20053;-65
2022/08/29 04:42:48;;;;;;;6.63;3.90;;;18.80;99.90;;;;;;5054410;28;20520;-65
2022/08/29 04:45:18;;;;;;;4.53;3.20;;;18.80;99.90;;;;;;5054374;28;20051;-65
2022/08/29 04:47:44;;;;;;;6.43;3.70;;;19.00;99.90;;;;;;5054292;28;20079;-64
2022/08/29 04:50:13;;;;;;;6.82;4.05;;;19.10;99.90;;;;;;5054090;28;20063;-64
2022/08/29 04:52:42;;;;;;;6.03;4.20;;;18.90;99.90;;;;;;5054032;28;20408;-64
2022/08/29 04:55:10;;;;;;;6.95;4.15;;;18.80;99.90;;;;;;5053973;28;20045;-65
2022/08/29 04:57:37;;;;;;;8.30;4.22;;;18.80;99.90;;;;;;5053892;28;20557;-65
2022/08/29 05:00:05;;;;;;;5.22;3.78;;;18.80;99.90;;;;;;5053917;28;20041;-64
2022/08/29 05:02:31;;;;;;;4.60;3.38;;;18.90;99.90;;;;;;5053911;28;20094;-64
2022/08/29 05:04:56;;;;;;;4.97;3.40;;;18.70;99.90;;;;;;5054083;28;20048;-65
2022/08/29 05:07:25;;;;;;;5.28;4.05;;;18.50;99.90;;;;;;5054040;28;20400;-64
2022/08/29 05:10:01;;;;;;;8.77;3.58;;;18.60;99.90;;;;;;5054013;28;20492;-64
2022/08/29 05:12:32;;;;;;;6.35;3.90;;;18.60;99.90;;;;;;5053510;28;20075;-65
2022/08/29 05:14:58;;;;;;;6.00;3.90;;;18.50;99.90;;;;;;5053461;28;20253;-65
2022/08/29 05:17:24;;;;;;;6.22;3.22;;;18.70;99.90;;;;;;5053721;28;20076;-65
2022/08/29 05:19:53;;;;;;;7.72;3.35;;;18.80;99.90;;;;;;5053781;28;20041;-65
2022/08/29 05:22:20;;;;;;;10.32;3.55;;;18.90;99.90;;;;;;5053873;28;20047;-65
2022/08/29 05:24:46;;;;;;;5.75;3.67;;;19.00;99.90;;;;;;5053812;28;20171;-65
2022/08/29 05:27:15;;;;;;;5.65;4.13;;;19.00;99.90;;;;;;5053856;28;20400;-65
2022/08/29 05:29:43;;;;;;;6.25;3.75;;;19.00;99.90;;;;;;5062714;28;20040;-65
2022/08/29 05:32:10;;;;;;;6.18;4.00;;;19.10;99.90;;;;;;5071689;28;20044;-65
2022/08/29 05:34:37;;;;;;;7.57;4.15;;;19.20;99.90;;;;;;5072815;28;20036;-65
2022/08/29 05:37:06;;;;;;;5.15;3.55;;;19.20;99.90;;;;;;5072641;28;20044;-65
2022/08/29 05:39:34;;;;;;;5.15;3.47;;;19.30;99.90;;;;;;5073392;28;20051;-65
2022/08/29 05:42:00;;;;;;;4.50;3.38;;;19.50;99.90;;;;;;5073498;28;20049;-65
2022/08/29 05:44:27;;;;;;;5.85;4.18;;;19.70;99.90;;;;;;5073626;28;20124;-65
2022/08/29 05:46:53;;;;;;;5.35;3.97;;;19.90;99.90;;;;;;5073566;28;20550;-66
2022/08/29 05:49:19;;;;;;;6.53;4.38;;;20.00;99.90;;;;;;5073639;28;20037;-65
2022/08/29 05:51:45;;;;;;;6.18;3.90;;;20.20;99.90;;;;;;5073668;28;20123;-65
2022/08/29 05:54:11;;;;;;;5.43;4.00;;;20.20;99.90;;;;;;5073523;28;20517;-65
2022/08/29 05:56:36;;;;;;;5.18;3.83;;;20.30;99.90;;;;;;5073496;28;20032;-65
2022/08/29 05:59:02;;;;;;;6.82;3.88;;;20.40;99.90;;;;;;5073368;28;20542;-65
2022/08/29 06:01:32;;;;;;;5.60;4.15;;;20.50;99.90;;;;;;5073745;28;20072;-65
2022/08/29 06:03:59;;;;;;;7.15;4.10;;;20.50;99.90;;;;;;5072218;28;20395;-65
2022/08/29 06:06:27;;;;;;;6.82;4.60;;;20.50;99.90;;;;;;5073206;28;20044;-66
2022/08/29 06:08:54;;;;;;;4.93;3.80;;;20.50;99.90;;;;;;5073292;28;20044;-65
2022/08/29 06:11:23;;;;;;;8.43;4.43;;;20.60;99.90;;;;;;5073284;28;20089;-66
2022/08/29 06:13:48;;;;;;;5.57;3.85;;;20.70;99.90;;;;;;5073448;28;20123;-66
2022/08/29 06:16:18;;;;;;;5.38;3.95;;;21.00;99.90;;;;;;5073455;28;20123;-66
2022/08/29 06:18:44;;;;;;;6.50;4.50;;;21.00;99.90;;;;;;5073362;28;20392;-66
2022/08/29 06:21:12;;;;;;;5.95;3.83;;;21.20;99.90;;;;;;5073405;28;20052;-66
2022/08/29 06:23:39;;;;;;;4.30;3.30;;;21.20;99.90;;;;;;5073589;28;20032;-66
2022/08/29 06:26:06;;;;;;;4.40;3.50;;;21.30;99.90;;;;;;5076399;28;20036;-66
2022/08/29 06:28:34;;;;;;;5.97;4.50;;;21.40;99.90;;;;;;5076815;28;20037;-65
2022/08/29 06:31:12;;;;;;;5.95;3.80;;;21.60;99.90;;;;;;5077192;28;20082;-65
2022/08/29 06:33:38;;;;;;;5.78;3.80;;;21.90;99.90;;;;;;5076942;28;20067;-66
2022/08/29 06:36:05;;;;;;;6.32;4.32;;;22.30;99.90;;;;;;5076893;28;20511;-67
2022/08/29 06:38:31;;;;;;;6.50;4.40;;;22.40;99.90;;;;;;5076636;28;20379;-66
2022/08/29 06:41:05;;;;;;;4.80;3.67;;;22.60;99.90;;;;;;5076555;28;20048;-66
2022/08/29 06:43:31;;;;;;;5.35;3.85;;;22.60;99.90;;;;;;5076726;28;20422;-66
2022/08/29 06:45:57;;;;;;;6.72;3.60;;;22.80;99.90;;;;;;5076324;28;20522;-67
2022/08/29 06:48:24;;;;;;;5.63;3.83;;;22.70;99.90;;;;;;5076520;28;20392;-66
2022/08/29 06:50:51;;;;;;;4.78;3.65;;;22.90;99.90;;;;;;5076333;28;20072;-66
2022/08/29 06:53:18;;;;;;;4.75;3.58;;;22.90;99.90;;;;;;5076313;28;20119;-67
2022/08/29 06:55:47;;;;;;;4.85;3.70;;;23.30;99.90;;;;;;5076401;28;20048;-67
2022/08/29 06:58:13;;;;;;;4.60;3.55;;;23.40;99.90;;;;;;5076124;28;20043;-66
2022/08/29 07:00:41;;;;;;;5.53;3.63;;;23.40;99.90;;;;;;5076259;28;20048;-66
2022/08/29 07:03:07;;;;;;;6.28;4.00;;;23.50;99.90;;;;;;5076172;28;20040;-66
2022/08/29 07:05:33;;;;;;;5.57;3.58;;;23.90;99.90;;;;;;5076251;28;20185;-67
2022/08/29 07:07:59;;;;;;;5.18;3.53;;;24.10;99.90;;;;;;5076299;28;20123;-66
2022/08/29 07:10:25;;;;;;;4.13;3.53;;;24.00;99.90;;;;;;5076102;28;20404;-66
2022/08/29 07:12:51;;;;;;;5.60;3.65;;;24.10;99.90;;;;;;5076079;28;20040;-66
2022/08/29 07:15:18;;;;;;;5.15;3.45;;;24.10;99.90;;;;;;5075699;28;20035;-66
2022/08/29 07:17:44;;;;;;;7.22;3.72;;;24.20;99.90;;;;;;5075625;28;20072;-66
2022/08/29 07:20:10;;;;;;;4.78;3.45;;;24.30;99.90;;;;;;5075618;28;20152;-67
2022/08/29 07:22:36;;;;;;;4.05;3.40;;;24.30;99.90;;;;;;5075723;28;20114;-67
2022/08/29 07:25:02;;;;;;;5.20;3.53;;;24.50;99.90;;;;;;5075754;28;20040;-67
2022/08/29 07:27:28;;;;;;;5.22;3.38;;;;;;;;;;5075589;28;20044;-67
2022/08/29 07:29:54;;;;;;;4.35;3.40;;;24.80;99.90;;;;;;5075586;28;20047;-67
2022/08/29 07:32:20;;;;;;;4.70;3.58;;;24.60;99.80;;;;;;5075592;28;20045;-66
2022/08/29 07:34:45;;;;;;;6.70;3.78;;;24.60;99.90;;;;;;5074980;28;20557;-67
2022/08/29 07:37:11;;;;;;;5.97;3.45;;;25.10;99.90;;;;;;5074186;28;20054;-66
2022/08/29 07:39:37;;;;;;;3.67;2.80;;;25.60;99.20;;;;;;5075540;28;20036;-66
2022/08/29 07:42:03;;;;;;;4.75;3.10;;;25.40;98.40;;;;;;5075438;28;20044;-66
2022/08/29 07:44:29;;;;;;;5.75;3.75;;;25.80;98.20;;;;;;5075391;28;20449;-66
2022/08/29 07:46:57;;;;;;;5.18;3.63;;;25.20;98.10;;;;;;5075126;28;20048;-66
2022/08/29 07:49:23;;;;;;;8.30;3.50;;;25.80;98.30;;;;;;5075116;28;20117;-67
2022/08/29 07:51:51;;;;;;;4.40;3.35;;;;;;;;;;5074862;28;20045;-66
2022/08/29 07:54:17;;;;;;;8.50;3.50;;;25.90;99.90;;;;;;5075101;28;20522;-67
2022/08/29 07:56:45;;;;;;;5.70;3.88;;;26.40;97.50;;;;;;5075286;28;20434;-67
2022/08/29 07:59:12;;;;;;;6.85;3.15;;;26.40;97.00;;;;;;5075163;28;20036;-66
2022/08/29 08:01:39;;;;;;;3.63;3.15;;;26.60;97.20;;;;;;5074461;28;20059;-66
2022/08/29 08:04:05;;;;;;;5.03;3.53;;;26.70;96.80;;;;;;5074695;28;20029;-66
2022/08/29 08:06:32;;;;;;;9.80;4.07;;;26.90;96.20;;;;;;5075134;28;20438;-67
2022/08/29 08:08:58;;;;;;;6.32;3.65;;;26.70;96.00;;;;;;5074700;28;20045;-66
2022/08/29 08:11:25;;;;;;;5.80;3.85;;;26.50;96.60;;;;;;5074839;28;20063;-67
2022/08/29 08:13:53;;;;;;;6.38;3.95;;;26.60;95.80;;;;;;5074729;28;20449;-66
2022/08/29 08:16:20;;;;;;;6.13;4.00;;;26.60;95.50;;;;;;5074339;28;20387;-67
2022/08/29 08:18:47;;;;;;;4.75;3.70;;;26.60;96.60;;;;;;5074564;28;20036;-68
2022/08/29 08:21:13;;;;;;;5.03;3.40;;;26.60;94.90;;;;;;5074508;28;20411;-66
2022/08/29 08:23:41;;;;;;;4.22;3.45;;;26.80;94.50;;;;;;5074594;28;20193;-66
2022/08/29 08:26:08;;;;;;;7.05;3.85;;;26.60;94.80;;;;;;5074589;28;20055;-66
2022/08/29 08:28:35;;;;;;;6.30;3.60;;;26.70;94.90;;;;;;5074554;28;20556;-68
2022/08/29 08:31:02;;;;;;;5.15;4.00;;;26.40;94.50;;;;;;5074292;28;20066;-66
2022/08/29 08:33:28;;;;;;;5.05;3.65;;;26.60;94.80;;;;;;5074623;28;20376;-66
2022/08/29 08:35:55;;;;;;;6.07;3.58;;;26.30;94.60;;;;;;5074548;28;20098;-66
2022/08/29 08:38:21;;;;;;;5.68;3.60;;;26.50;94.70;;;;;;5070275;28;20407;-66
2022/08/29 08:41:25;;;;;;;4.43;3.47;;;26.40;94.60;;;;;;5066924;28;20542;-66
2022/08/29 08:44:00;;;;;;;5.93;3.95;;;26.70;94.00;;;;;;5071181;28;20040;-66
2022/08/29 08:46:40;;;;;;;5.95;4.25;;;26.60;94.10;;;;;;5072066;28;20051;-66
2022/08/29 08:49:18;;;;;;;4.25;3.45;;;26.70;93.70;;;;;;5068554;28;20056;-65
2022/08/29 08:51:54;;;;;;;5.90;3.80;;;26.70;94.00;;;;;;5060758;28;20039;-65
2022/08/29 08:54:24;;;;;;;4.25;3.20;;;26.80;93.70;;;;;;5051733;28;20072;-64
2022/08/29 08:57:02;;;;;;;5.13;4.15;;;26.60;93.60;;;;;;5052075;28;20052;-64
2022/08/29 08:59:42;;;;;;;5.38;3.70;;;27.00;93.30;;;;;;5051148;28;20071;-64
2022/08/29 09:02:14;;;;;;;4.90;3.75;;;27.10;93.50;;;;;;5050131;28;20056;-64
2022/08/29 09:05:06;;;;;;;4.88;3.70;;;26.60;93.90;;;;;;5051950;28;20844;-64
2022/08/29 09:07:43;;;;;;;6.50;3.63;;;26.80;93.50;;;;;;5052116;28;20040;-63
2022/08/29 09:10:34;;;;;;;5.40;3.53;;;27.40;92.90;;;;;;5051258;28;20051;-63
2022/08/29 09:13:10;;;;;;;4.78;3.58;;;27.40;92.60;;;;;;5051686;28;20488;-63
2022/08/29 09:15:59;;;;;;;6.15;3.17;;;27.50;92.60;;;;;;5052020;28;20388;-64
2022/08/29 09:18:43;;;;;;;4.50;3.65;;;27.40;93.20;;;;;;5052029;28;20127;-64
2022/08/29 09:21:15;;;;;;;7.43;4.15;;;27.20;92.10;;;;;;5051820;28;20041;-64
2022/08/29 09:24:16;;;;;;;6.45;3.30;;;27.40;93.10;;;;;;5051916;28;20501;-63
2022/08/29 09:26:42;;;;;;;4.90;3.75;;;27.40;92.50;;;;;;5047627;28;20041;-64
2022/08/29 09:29:10;;;;;;;7.20;3.90;;;26.80;92.60;;;;;;5051790;28;20041;-64
2022/08/29 09:31:36;;;;;;;7.05;4.60;;;27.10;93.50;;;;;;5051755;28;20061;-63
2022/08/29 09:34:07;;;;;;;5.47;3.75;;;27.30;92.90;;;;;;5051707;28;20079;-63
2022/08/29 09:36:45;;;;;;;6.65;4.13;;;27.70;92.70;;;;;;5051437;28;20029;-63
2022/08/29 09:39:12;;;;;;;7.00;3.75;;;27.90;92.60;;;;;;5051028;28;20045;-64
2022/08/29 09:41:39;;;;;;;6.35;4.30;;;27.50;92.20;;;;;;5051658;28;20056;-63
2022/08/29 09:44:10;;;;;;;6.47;3.97;;;27.50;92.50;;;;;;5051627;28;20131;-63
2022/08/29 09:46:36;;;;;;;6.03;4.43;;;27.40;92.30;;;;;;5067909;28;20048;-63
2022/08/29 09:49:02;;;;;;;9.25;4.03;;;28.00;92.40;;;;;;5071101;28;20037;-64
2022/08/29 09:51:39;;;;;;;6.32;4.00;;;28.50;92.30;;;;;;5070534;28;20044;-64
2022/08/29 09:54:17;;;;;;;7.30;3.80;;;28.40;91.80;;;;;;5070753;28;20036;-64
2022/08/29 09:57:00;;;;;;;4.28;3.60;;;27.80;91.50;;;;;;5071762;28;20047;-64
2022/08/29 09:59:34;;;;;;;6.95;4.82;;;28.10;92.00;;;;;;5072452;28;20053;-65
2022/08/29 10:02:23;;;;;;;4.85;3.47;;;28.40;91.30;;;;;;5075244;28;20051;-64
2022/08/29 10:04:51;;;;;;;5.07;3.63;;;28.30;91.30;;;;;;5075749;28;20036;-63
2022/08/29 10:07:36;;;;;;;7.00;3.70;;;28.70;90.90;;;;;;5075308;28;20060;-64
2022/08/29 10:10:14;;;;;;;6.38;4.40;;;28.50;90.50;;;;;;5061451;28;20079;-64
2022/08/29 10:13:14;;;;;;;5.32;4.13;;;28.20;91.30;;;;;;5061337;28;20098;-65
2022/08/29 10:15:47;;;;;;;9.55;4.25;;;28.40;91.00;;;;;;5053945;28;20410;-64
2022/08/29 10:18:27;;;;;;;5.30;3.95;;;27.80;91.30;;;;;;5061843;28;20166;-64
2022/08/29 10:21:15;;;;;;;6.70;4.50;;;28.00;91.30;;;;;;5072503;28;20044;-65
2022/08/29 10:23:59;;;;;;;4.90;3.85;;;28.20;90.80;;;;;;5074697;28;20041;-64
2022/08/29 10:26:30;;;;;;;5.05;3.70;;;28.30;91.20;;;;;;5075578;28;20090;-64
2022/08/29 10:29:02;;;;;;;6.65;4.20;;;28.50;90.80;;;;;;5076666;28;20039;-66
2022/08/29 10:31:46;;;;;;;4.55;3.80;;;28.80;90.50;;;;;;5074996;28;20067;-63
2022/08/29 10:34:23;;;;;;;8.50;4.65;;;28.50;90.30;;;;;;5073320;28;20109;-65
2022/08/29 10:36:57;;;;;;;5.85;4.50;;;28.30;90.30;;;;;;5075196;28;20032;-65
2022/08/29 10:39:54;;;;;;;4.00;3.30;;;28.40;90.40;;;;;;5074845;28;20036;-63
2022/08/29 10:42:24;;;;;;;4.47;3.50;;;28.50;90.30;;;;;;5076000;28;20056;-64
2022/08/29 10:45:10;;;;;;;5.03;3.90;;;28.50;90.10;;;;;;5073973;28;20124;-65
2022/08/29 10:47:40;;;;;;;4.75;3.80;;;28.40;89.00;;;;;;5074945;28;20535;-65
2022/08/29 10:50:19;;;;;;;5.88;3.88;;;28.40;89.10;;;;;;5073499;28;20064;-65
2022/08/29 10:53:13;;;;;;;5.93;3.92;;;28.80;89.50;;;;;;5073481;28;20040;-64
2022/08/29 10:55:56;;;;;;;5.47;3.90;;;28.90;89.30;;;;;;5075385;28;20051;-64
2022/08/29 10:58:25;;;;;;;6.35;4.10;;;28.90;89.70;;;;;;5074322;28;20067;-65
2022/08/29 11:01:10;;;;;;;7.35;4.07;;;28.80;88.30;;;;;;5074185;28;20079;-65
2022/08/29 11:03:49;;;;;;;5.40;3.92;;;28.70;88.20;;;;;;5074823;28;20464;-65
2022/08/29 11:06:23;;;;;;;5.53;4.28;;;28.60;88.20;;;;;;5075135;28;20127;-65
2022/08/29 11:09:23;;;;;;;5.75;3.80;;;28.50;88.80;;;;;;5074438;28;20074;-65
2022/08/29 11:12:15;;;;;;;5.20;3.95;;;28.80;88.40;;;;;;5073372;28;20028;-65
2022/08/29 11:15:00;;;;;;;4.72;3.63;;;28.80;88.50;;;;;;5074891;28;20507;-65
2022/08/29 11:17:39;;;;;;;5.40;4.40;;;28.50;88.50;;;;;;5074104;28;20094;-65
2022/08/29 11:20:10;;;;;;;5.55;4.03;;;28.40;88.10;;;;;;5073820;28;20072;-65
2022/08/29 11:22:41;;;;;;;6.55;3.85;;;28.70;86.90;;;;;;5074126;28;20082;-65
2022/08/29 11:25:16;;;;;;;4.50;3.40;;;29.00;87.20;;;;;;5074688;28;20036;-64
2022/08/29 11:28:16;;;;;;;5.18;4.07;;;28.90;84.60;;;;;;5074651;28;20205;-64
2022/08/29 11:30:54;;;;;;;5.05;3.55;;;28.80;85.90;;;;;;5057897;28;20052;-64
2022/08/29 11:33:23;;;;;;;10.85;3.55;;;28.80;85.50;;;;;;5074701;28;20395;-64
2022/08/29 11:35:52;;;;;;;5.18;3.90;;;29.10;85.60;;;;;;5074173;28;20040;-64
2022/08/29 11:38:57;;;;;;;5.68;4.35;;;29.10;84.60;;;;;;5073862;28;20037;-64
2022/08/29 11:41:31;;;;;;;5.22;3.70;;;29.20;84.30;;;;;;5073294;28;20110;-64
2022/08/29 11:44:03;;;;;;;5.03;3.35;;;29.40;84.50;;;;;;5073136;28;20111;-65
2022/08/29 11:46:50;;;;;;;5.10;3.97;;;29.70;84.50;;;;;;5073381;28;20044;-64
2022/08/29 11:49:19;;;;;;;5.40;3.95;;;29.30;85.70;;;;;;5073491;28;20064;-64
2022/08/29 11:51:58;;;;;;;6.90;4.00;;;29.40;84.40;;;;;;5074346;28;20090;-65
2022/08/29 11:54:24;;;;;;;4.68;2.92;;;29.40;83.90;;;;;;5073025;28;20522;-64
2022/08/29 11:57:10;;;;;;;3.90;3.03;;;29.60;83.10;;;;;;5072904;28;20036;-63
2022/08/29 11:59:58;;;;;;;3.90;3.40;;;29.30;81.10;;;;;;5067552;28;20508;-63
2022/08/29 12:02:27;;;;;;;5.38;3.63;;;29.30;82.10;;;;;;5074092;28;20042;-65
2022/08/29 12:05:13;;;;;;;4.75;3.40;;;29.20;82.70;;;;;;5072994;28;20127;-63
2022/08/29 12:07:48;;;;;;;5.13;3.50;;;29.70;82.50;;;;;;5053051;28;20192;-63
2022/08/29 12:10:22;;;;;;;3.80;3.08;;;29.50;81.70;;;;;;5072942;28;20067;-63
2022/08/29 12:12:52;;;;;;;7.05;2.88;;;29.80;81.10;;;;;;5073253;28;20119;-64
2022/08/29 12:15:33;;;;;;;3.88;2.67;;;29.70;80.40;;;;;;5074164;28;20066;-64
2022/08/29 12:18:12;;;;;;;4.15;3.08;;;29.90;79.60;;;;;;5074802;28;20127;-63
2022/08/29 12:20:51;;;;;;;3.67;2.63;;;29.50;78.10;;;;;;5074945;28;20109;-63
2022/08/29 12:23:18;;;;;;;4.22;3.15;;;29.40;76.90;;;;;;5073737;28;20047;-65
2022/08/29 12:26:25;;;;;;;3.85;3.03;;;29.40;77.20;;;;;;5072906;28;20115;-64
2022/08/29 12:29:00;;;;;;;3.85;2.90;;;29.80;78.60;;;;;;5074578;28;20047;-64
2022/08/29 12:32:04;;;;;;;3.78;3.00;;;29.60;78.00;;;;;;5073864;28;20512;-64
2022/08/29 12:35:02;;;;;;;4.60;3.42;;;30.10;78.50;;;;;;5072157;28;20538;-65
2022/08/29 12:37:29;;;;;;;4.53;3.42;;;;;;;;;;5064330;28;20089;-65
2022/08/29 12:40:16;;;;;;;3.58;3.08;;;29.90;77.50;;;;;;5071874;28;20385;-64
2022/08/29 12:42:48;;;;;;;4.13;3.17;;;29.80;77.90;;;;;;5072264;28;20044;-64
2022/08/29 12:45:23;;;;;;;3.67;3.10;;;29.90;78.20;;;;;;5073684;28;20086;-64
2022/08/29 12:48:03;;;;;;;4.13;3.25;;;30.10;78.00;;;;;;5072780;28;20044;-64
2022/08/29 12:50:42;;;;;;;7.65;3.58;;;30.00;79.10;;;;;;5072672;28;20067;-65
2022/08/29 12:53:18;;;;;;;3.97;3.07;;;29.90;78.10;;;;;;5072325;28;20048;-64
2022/08/29 12:55:49;;;;;;;6.53;2.95;;;30.00;78.30;;;;;;5063277;28;20396;-64
2022/08/29 12:58:34;;;;;;;4.47;3.17;;;29.70;78.90;;;;;;5052565;28;20077;-65
2022/08/29 13:01:00;;;;;;;3.88;2.72;;;29.80;77.60;;;;;;5052912;28;20052;-64
2022/08/29 13:03:26;;;;;;;4.20;3.22;;;29.80;78.20;;;;;;5054164;28;20045;-65
2022/08/29 13:06:06;;;;;;;3.38;2.83;;;29.90;77.50;;;;;;5053450;28;20541;-65
2022/08/29 13:08:35;;;;;;;6.25;3.00;;;30.00;78.00;;;;;;5052206;28;20037;-65
2022/08/29 13:11:08;;;;;;;4.90;3.22;;;29.90;77.00;;;;;;5051869;28;20047;-65